AQQ9 IFIS: Internet Flight Information System
logo dgac
Miércoles 24 de Julio del 2024
Buscar por aerodromo o helipuerto
Ingrese nombre de aeródromo, localidad o designador OACI:
METAR del 23-07-2024 a las 21:00 UTC
Para mayor información visite www.meteochile.gob.cl
METAR SCCC 232100Z 29022KT 9999 FEW040 SCT200 18/00 Q1002
Viento: dirección 290 grados, velocidad 22 nudos
Visibilidad: 10 km o más
Nubes: Escasa nubosidad a 4000 pies sobre el nivel del aeródromo
Nubes: Nubosidad parcial a 20000 pies sobre el nivel del aeródromo
Temperatura: 18 °C
Rocío: 0 °C
Humedad_relativa: 30%
Presión: 1002 hPa
METAR del 23-07-2024 a las 20:00 UTC
Para mayor información visite www.meteochile.gob.cl
METAR SCCC 232000Z 29018G29KT CAVOK 20/M01 Q1002
Viento: dirección 290 grados, velocidad 18 nudos, con ráfagas de velocidad máxima de 29Nudos
Visibilidad: 10 km o más,
    sin nubes bajo los 5.000 pies o bajo del MSA (Mínimo de Seguridad del Aeródromo),
    sin cumulonimbus, y sin fenómenos de tiempo significativo en el aeródromo o alrededores
Temperatura: 20 °C
Rocío: -1 °C
Humedad_relativa: 24%
Presión: 1002 hPa
METAR del 23-07-2024 a las 19:00 UTC
Para mayor información visite www.meteochile.gob.cl
METAR SCCC 231900Z 29022G32KT CAVOK 21/05 Q1002
Viento: dirección 290 grados, velocidad 22 nudos, con ráfagas de velocidad máxima de 32Nudos
Visibilidad: 10 km o más,
    sin nubes bajo los 5.000 pies o bajo del MSA (Mínimo de Seguridad del Aeródromo),
    sin cumulonimbus, y sin fenómenos de tiempo significativo en el aeródromo o alrededores
Temperatura: 21 °C
Rocío: 5 °C
Humedad_relativa: 35%
Presión: 1002 hPa
METAR del 23-07-2024 a las 18:00 UTC
Para mayor información visite www.meteochile.gob.cl
METAR SCCC 231800Z 33010KT CAVOK 19/M05 Q1002
Viento: dirección 330 grados, velocidad 10 nudos
Visibilidad: 10 km o más,
    sin nubes bajo los 5.000 pies o bajo del MSA (Mínimo de Seguridad del Aeródromo),
    sin cumulonimbus, y sin fenómenos de tiempo significativo en el aeródromo o alrededores
Temperatura: 19 °C
Rocío: -5 °C
Humedad_relativa: 19%
Presión: 1002 hPa
METAR del 23-07-2024 a las 17:00 UTC
Para mayor información visite www.meteochile.gob.cl
METAR SCCC 231700Z 04005KT CAVOK 11/03 Q1003
Viento: dirección 040 grados, velocidad 5 nudos
Visibilidad: 10 km o más,
    sin nubes bajo los 5.000 pies o bajo del MSA (Mínimo de Seguridad del Aeródromo),
    sin cumulonimbus, y sin fenómenos de tiempo significativo en el aeródromo o alrededores
Temperatura: 11 °C
Rocío: 3 °C
Humedad_relativa: 58%
Presión: 1003 hPa
METAR del 23-07-2024 a las 16:00 UTC
Para mayor información visite www.meteochile.gob.cl
METAR SCCC 231600Z 23003KT CAVOK 09/03 Q1004
Viento: dirección 230 grados, velocidad 3 nudos
Visibilidad: 10 km o más,
    sin nubes bajo los 5.000 pies o bajo del MSA (Mínimo de Seguridad del Aeródromo),
    sin cumulonimbus, y sin fenómenos de tiempo significativo en el aeródromo o alrededores
Temperatura: 9 °C
Rocío: 3 °C
Humedad_relativa: 66%
Presión: 1004 hPa
METAR del 23-07-2024 a las 15:00 UTC
Para mayor información visite www.meteochile.gob.cl
METAR SCCC 231500Z 24003KT CAVOK 12/03 Q1004
Viento: dirección 240 grados, velocidad 3 nudos
Visibilidad: 10 km o más,
    sin nubes bajo los 5.000 pies o bajo del MSA (Mínimo de Seguridad del Aeródromo),
    sin cumulonimbus, y sin fenómenos de tiempo significativo en el aeródromo o alrededores
Temperatura: 12 °C
Rocío: 3 °C
Humedad_relativa: 54%
Presión: 1004 hPa
METAR del 23-07-2024 a las 14:00 UTC
Para mayor información visite www.meteochile.gob.cl
METAR SCCC 231400Z 16003KT CAVOK 08/03 Q1005
Viento: dirección 160 grados, velocidad 3 nudos
Visibilidad: 10 km o más,
    sin nubes bajo los 5.000 pies o bajo del MSA (Mínimo de Seguridad del Aeródromo),
    sin cumulonimbus, y sin fenómenos de tiempo significativo en el aeródromo o alrededores
Temperatura: 8 °C
Rocío: 3 °C
Humedad_relativa: 71%
Presión: 1005 hPa
METAR del 23-07-2024 a las 13:00 UTC
Para mayor información visite www.meteochile.gob.cl
METAR SCCC 231300Z 18011KT CAVOK 03/00 Q1005
Viento: dirección 180 grados, velocidad 11 nudos
Visibilidad: 10 km o más,
    sin nubes bajo los 5.000 pies o bajo del MSA (Mínimo de Seguridad del Aeródromo),
    sin cumulonimbus, y sin fenómenos de tiempo significativo en el aeródromo o alrededores
Temperatura: 3 °C
Rocío: 0 °C
Humedad_relativa: 81%
Presión: 1005 hPa